Terminal Aerodrome Forecast
Issued by NWS

Home | Current Version | Previous Version | Text Only | Print | Product List | Glossary On
Versions: 1 2 3 4 5 6 7 8 9 10 11 12 13 14 15 16 17 18 19 20 21 22 23 24
391
FTUS45 KABQ 261740
TAFLVS
TAF
KLVS 261740Z 2618/2718 18011KT P6SM SCT070 BKN150
     FM262100 17011KT P6SM VCSH SCT060 BKN100
      TEMPO 2622/2701 VRB20G30KT 6SM -TSRA BKN060CB
     FM270600 21008KT P6SM SCT015
     FM271700 21015G25KT P6SM SCT120=

USA.gov is the U.S. government's official web portal to all federal, state and local government web resources and services.